Time;durP1;ratioP1;P1;durP2;ratioP2;P2;SDS_P1;SDS_P2;PMS_P1;PMS_P2;Temp;Humidity;BMP_temperature;BMP_pressure;BME280_temperature;BME280_humidity;BME280_pressure;Samples;Min_cycle;Max_cycle;Signal;HPM_P1;HPM_P2
2023/05/28 00:00:46;;;;;;;0.87;0.53;;;18.90;75.50;;;;;;5127766;27;20023;-76
2023/05/28 00:03:12;;;;;;;0.37;0.37;;;18.90;75.70;;;;;;5125670;27;20039;-76
2023/05/28 00:05:38;;;;;;;1.93;0.93;;;18.80;75.80;;;;;;5129302;27;20046;-76
2023/05/28 00:08:04;;;;;;;0.67;0.47;;;18.70;76.40;;;;;;5127425;27;20161;-76
2023/05/28 00:10:29;;;;;;;0.87;0.87;;;18.60;76.90;;;;;;5129579;27;20027;-76
2023/05/28 00:12:55;;;;;;;0.67;0.67;;;18.50;77.10;;;;;;5129088;27;20026;-76
2023/05/28 00:15:21;;;;;;;0.52;0.52;;;18.60;76.90;;;;;;5129259;27;20091;-76
2023/05/28 00:17:47;;;;;;;1.07;1.07;;;18.60;76.80;;;;;;5129396;27;20118;-76
2023/05/28 00:20:13;;;;;;;0.37;0.37;;;18.50;77.10;;;;;;5129507;27;20573;-76
2023/05/28 00:22:39;;;;;;;0.30;0.30;;;18.50;77.60;;;;;;5129093;27;20031;-78
2023/05/28 00:25:05;;;;;;;1.03;0.93;;;18.40;77.80;;;;;;5128923;27;20023;-78
2023/05/28 00:27:31;;;;;;;0.70;0.70;;;18.40;77.80;;;;;;5127811;27;20291;-77
2023/05/28 00:29:57;;;;;;;0.10;0.10;;;18.40;77.70;;;;;;5127978;27;20034;-77
2023/05/28 00:32:22;;;;;;;0.43;0.43;;;18.40;77.90;;;;;;5128292;27;20031;-76
2023/05/28 00:34:48;;;;;;;0.23;0.23;;;18.40;78.00;;;;;;5121179;27;20042;-77
2023/05/28 00:37:14;;;;;;;0.27;0.27;;;18.40;77.90;;;;;;5126986;27;20039;-76
2023/05/28 00:39:40;;;;;;;0.70;0.63;;;18.40;77.90;;;;;;5128433;27;20118;-76
2023/05/28 00:42:10;;;;;;;0.63;0.63;;;18.40;77.80;;;;;;5128300;27;20076;-77
2023/05/28 00:44:37;;;;;;;2.65;0.88;;;18.50;77.60;;;;;;5120873;27;20095;-76
2023/05/28 00:47:04;;;;;;;0.65;0.65;;;18.50;77.40;;;;;;5128818;27;20034;-76
2023/05/28 00:49:30;;;;;;;0.55;0.55;;;18.40;77.40;;;;;;5128412;27;20035;-77
2023/05/28 00:51:56;;;;;;;0.30;0.30;;;18.40;77.60;;;;;;5127022;27;20034;-77
2023/05/28 00:54:25;;;;;;;;;;;18.30;78.00;;;;;;5128282;27;20053;-77
2023/05/28 00:56:53;;;;;;;1.15;1.08;;;18.30;78.40;;;;;;5128225;27;19923;-76
2023/05/28 00:59:21;;;;;;;0.20;0.20;;;18.20;78.40;;;;;;5127340;27;20106;-76
2023/05/28 01:01:47;;;;;;;0.77;0.77;;;18.30;78.40;;;;;;5127075;27;20410;-76
2023/05/28 01:04:13;;;;;;;0.65;0.65;;;18.20;78.70;;;;;;5127888;27;20051;-76
2023/05/28 01:06:39;;;;;;;0.27;0.27;;;18.20;78.80;;;;;;5125633;27;20739;-76
2023/05/28 01:09:08;;;;;;;0.60;0.55;;;18.10;79.10;;;;;;5127311;27;20130;-76
2023/05/28 01:11:35;;;;;;;1.60;0.70;;;18.10;79.40;;;;;;5127990;27;20038;-76
2023/05/28 01:14:03;;;;;;;0.90;0.70;;;17.90;79.90;;;;;;5126907;27;20778;-76
2023/05/28 01:16:29;;;;;;;0.20;0.20;;;17.90;80.60;;;;;;5128640;27;20035;-77
2023/05/28 01:18:55;;;;;;;0.60;0.57;;;17.80;80.80;;;;;;5129270;27;20019;-77
2023/05/28 01:21:27;;;;;;;1.00;1.00;;;17.70;81.20;;;;;;5128588;27;20023;-77
2023/05/28 01:23:54;;;;;;;0.28;0.28;;;17.70;81.60;;;;;;5126868;27;20576;-77
2023/05/28 01:26:19;;;;;;;1.83;0.85;;;17.70;81.80;;;;;;5124016;27;20118;-77
2023/05/28 01:28:46;;;;;;;0.40;0.40;;;17.60;82.00;;;;;;5112585;27;20122;-77
2023/05/28 01:31:13;;;;;;;0.85;0.85;;;17.60;82.40;;;;;;5127863;27;20030;-77
2023/05/28 01:33:43;;;;;;;0.40;0.40;;;17.50;82.50;;;;;;5127926;27;20059;-78
2023/05/28 01:36:16;;;;;;;0.47;0.47;;;17.50;82.90;;;;;;5122002;27;20019;-77
2023/05/28 01:38:44;;;;;;;0.25;0.25;;;17.40;83.20;;;;;;5126247;27;20521;-77
2023/05/28 01:41:11;;;;;;;0.70;0.65;;;17.40;83.20;;;;;;5126109;27;20019;-78
2023/05/28 01:43:37;;;;;;;;;;;17.40;83.40;;;;;;5128021;27;20086;-77
2023/05/28 01:46:03;;;;;;;0.77;0.77;;;17.30;83.80;;;;;;5125795;27;19998;-77
2023/05/28 01:48:29;;;;;;;0.83;0.50;;;17.20;84.30;;;;;;5127943;27;20042;-77
2023/05/28 01:50:55;;;;;;;0.75;0.75;;;17.20;84.70;;;;;;5125999;27;20015;-77
2023/05/28 01:53:21;;;;;;;0.73;0.73;;;17.20;84.60;;;;;;5127699;27;20039;-77
2023/05/28 01:55:46;;;;;;;0.43;0.43;;;17.20;84.60;;;;;;5127223;27;20091;-77
2023/05/28 01:58:12;;;;;;;0.27;0.27;;;17.20;84.80;;;;;;5128180;27;20571;-77
2023/05/28 02:00:46;;;;;;;0.87;0.87;;;17.20;85.00;;;;;;5119048;27;20030;-77
2023/05/28 02:03:12;;;;;;;4.28;1.17;;;17.10;85.10;;;;;;5124752;27;20113;-77
2023/05/28 02:05:37;;;;;;;5.00;1.20;;;17.10;85.10;;;;;;5127155;27;20031;-77
2023/05/28 02:08:03;;;;;;;0.40;0.40;;;17.10;85.30;;;;;;5125975;27;20034;-75
2023/05/28 02:10:29;;;;;;;0.50;0.50;;;17.10;85.30;;;;;;5125684;27;20437;-76
2023/05/28 02:12:55;;;;;;;0.10;0.10;;;17.10;85.10;;;;;;5126525;27;20641;-76
2023/05/28 02:15:21;;;;;;;0.33;0.33;;;17.10;85.20;;;;;;5125429;27;20023;-76
2023/05/28 02:17:47;;;;;;;0.30;0.30;;;17.10;85.20;;;;;;5118405;27;20043;-76
2023/05/28 02:20:13;;;;;;;0.43;0.43;;;17.00;85.60;;;;;;5119584;27;20411;-76
2023/05/28 02:22:38;;;;;;;0.93;0.83;;;17.00;85.90;;;;;;5123343;27;20036;-77
2023/05/28 02:25:05;;;;;;;0.73;0.73;;;17.00;85.80;;;;;;5121947;28;20034;-76
2023/05/28 02:27:31;;;;;;;0.25;0.25;;;16.90;85.90;;;;;;5123550;27;20119;-77
2023/05/28 02:29:57;;;;;;;0.10;0.10;;;17.00;86.00;;;;;;5124319;28;20037;-76
2023/05/28 02:32:23;;;;;;;0.37;0.37;;;16.90;86.40;;;;;;5121112;27;20114;-76
2023/05/28 02:34:48;;;;;;;1.50;0.83;;;16.90;86.70;;;;;;5120531;28;20035;-77
2023/05/28 02:37:14;;;;;;;0.20;0.20;;;16.70;87.00;;;;;;5121027;27;20039;-77
2023/05/28 02:39:40;;;;;;;3.00;1.03;;;16.70;87.30;;;;;;5126947;27;20027;-77
2023/05/28 02:42:05;;;;;;;0.33;0.33;;;16.70;87.30;;;;;;5126575;28;20072;-77
2023/05/28 02:44:31;;;;;;;0.53;0.53;;;16.70;87.40;;;;;;5122906;28;20027;-75
2023/05/28 02:46:57;;;;;;;0.43;0.43;;;16.60;87.80;;;;;;5127681;27;20561;-75
2023/05/28 02:49:22;;;;;;;0.23;0.23;;;16.60;88.00;;;;;;5120526;28;20834;-75
2023/05/28 02:51:48;;;;;;;0.97;0.97;;;16.60;88.20;;;;;;5120588;27;20015;-75
2023/05/28 02:54:14;;;;;;;0.67;0.60;;;16.50;88.40;;;;;;5120687;27;20134;-76
2023/05/28 02:56:39;;;;;;;0.50;0.50;;;16.50;88.30;;;;;;5117782;27;20056;-76
2023/05/28 02:59:05;;;;;;;0.40;0.40;;;16.50;88.50;;;;;;5114813;27;20055;-76
2023/05/28 03:01:31;;;;;;;0.30;0.30;;;16.50;88.30;;;;;;5123981;27;20045;-75
2023/05/28 03:03:56;;;;;;;0.30;0.30;;;16.50;88.30;;;;;;5126726;27;20562;-76
2023/05/28 03:06:22;;;;;;;0.30;0.30;;;16.50;88.20;;;;;;5124711;27;20030;-76
2023/05/28 03:08:48;;;;;;;0.60;0.60;;;16.50;88.40;;;;;;5126600;27;20079;-75
2023/05/28 03:11:13;;;;;;;0.80;0.80;;;16.50;88.60;;;;;;5124385;27;20084;-75
2023/05/28 03:13:39;;;;;;;0.20;0.20;;;16.40;88.50;;;;;;5126251;27;20058;-75
2023/05/28 03:16:06;;;;;;;0.17;0.17;;;16.50;88.40;;;;;;5125897;27;20027;-76
2023/05/28 03:18:31;;;;;;;0.47;0.47;;;16.50;88.40;;;;;;5126605;27;20023;-76
2023/05/28 03:20:57;;;;;;;1.60;0.57;;;16.50;88.60;;;;;;5126637;27;20034;-76
2023/05/28 03:23:23;;;;;;;2.13;1.03;;;16.40;88.80;;;;;;5126875;27;20030;-75
2023/05/28 03:25:48;;;;;;;1.10;0.87;;;16.30;89.30;;;;;;5126529;27;20027;-75
2023/05/28 03:28:14;;;;;;;1.13;1.03;;;16.30;89.50;;;;;;5125832;27;20031;-76
2023/05/28 03:30:40;;;;;;;1.00;0.63;;;16.20;89.80;;;;;;5125424;27;20019;-76
2023/05/28 03:33:05;;;;;;;0.67;0.67;;;16.20;90.00;;;;;;5130353;27;20085;-76
2023/05/28 03:35:31;;;;;;;0.10;0.10;;;16.20;90.00;;;;;;5132361;27;20024;-76
2023/05/28 03:37:57;;;;;;;0.57;0.57;;;16.20;90.00;;;;;;5129473;27;20035;-77
2023/05/28 03:40:22;;;;;;;2.03;0.57;;;16.20;90.00;;;;;;5130869;27;20189;-75
2023/05/28 03:42:48;;;;;;;0.10;0.10;;;16.20;90.00;;;;;;5130664;27;20027;-76
2023/05/28 03:45:14;;;;;;;4.50;1.37;;;16.20;90.10;;;;;;5130075;27;20031;-76
2023/05/28 03:47:40;;;;;;;0.50;0.50;;;16.10;90.10;;;;;;5128052;27;20023;-76
2023/05/28 03:50:06;;;;;;;0.40;0.40;;;16.10;90.10;;;;;;5129121;27;20613;-75
2023/05/28 03:52:32;;;;;;;0.67;0.67;;;16.10;90.20;;;;;;5130447;27;20027;-76
2023/05/28 03:54:58;;;;;;;0.90;0.90;;;16.10;90.10;;;;;;5124196;27;20776;-76
2023/05/28 03:57:24;;;;;;;1.00;0.77;;;16.10;90.10;;;;;;5129848;27;20115;-77
2023/05/28 03:59:49;;;;;;;0.10;0.10;;;16.00;90.30;;;;;;5126669;27;20636;-77
2023/05/28 04:02:15;;;;;;;0.30;0.30;;;16.00;90.30;;;;;;5122371;27;20461;-77
2023/05/28 04:04:41;;;;;;;1.07;0.87;;;16.10;90.30;;;;;;5130063;27;20518;-76
2023/05/28 04:07:07;;;;;;;0.67;0.67;;;16.00;90.30;;;;;;5138091;27;20041;-76
2023/05/28 04:09:33;;;;;;;0.63;0.63;;;16.00;90.30;;;;;;5130069;27;20027;-76
2023/05/28 04:11:58;;;;;;;2.93;1.43;;;16.00;90.40;;;;;;5129789;27;20129;-76
2023/05/28 04:14:25;;;;;;;0.27;0.27;;;16.00;90.50;;;;;;5130045;27;20080;-76
2023/05/28 04:16:51;;;;;;;0.73;0.73;;;16.00;90.60;;;;;;5119668;27;20028;-76
2023/05/28 04:19:16;;;;;;;0.43;0.43;;;16.00;90.50;;;;;;5126123;27;20018;-76
2023/05/28 04:21:42;;;;;;;0.57;0.57;;;15.90;90.50;;;;;;5124055;27;20409;-76
2023/05/28 04:24:08;;;;;;;1.27;0.97;;;15.90;90.70;;;;;;5117925;27;20157;-76
2023/05/28 04:26:34;;;;;;;0.60;0.60;;;15.80;90.70;;;;;;5119809;27;20019;-76
2023/05/28 04:28:59;;;;;;;1.42;1.33;;;15.90;90.80;;;;;;5122863;27;20023;-76
2023/05/28 04:31:27;;;;;;;0.53;0.53;;;15.90;90.70;;;;;;5129747;27;20038;-76
2023/05/28 04:33:53;;;;;;;0.50;0.45;;;16.10;90.60;;;;;;5127569;27;20524;-76
2023/05/28 04:36:19;;;;;;;0.50;0.50;;;16.50;90.00;;;;;;5125322;27;20038;-76
2023/05/28 04:38:46;;;;;;;0.20;0.20;;;16.60;89.50;;;;;;5121141;27;20027;-76
2023/05/28 04:41:14;;;;;;;1.00;1.00;;;16.70;89.30;;;;;;5129524;27;20019;-76
2023/05/28 04:43:40;;;;;;;0.20;0.20;;;16.90;88.10;;;;;;5121233;27;20038;-76
2023/05/28 04:46:08;;;;;;;0.47;0.47;;;17.20;87.00;;;;;;5121510;27;20027;-77
2023/05/28 04:48:35;;;;;;;0.63;0.63;;;17.50;86.10;;;;;;5124969;27;20046;-77
2023/05/28 04:51:03;;;;;;;;;;;17.80;84.70;;;;;;5126301;27;20031;-75
2023/05/28 04:53:29;;;;;;;0.10;0.10;;;17.80;84.30;;;;;;5126885;27;19915;-77
2023/05/28 04:55:55;;;;;;;0.53;0.53;;;18.00;83.80;;;;;;5120366;27;20084;-77
2023/05/28 04:58:22;;;;;;;1.23;1.13;;;18.30;82.80;;;;;;5124450;27;20031;-76
2023/05/28 05:00:47;;;;;;;0.35;0.35;;;18.20;82.40;;;;;;5117231;27;20030;-76
2023/05/28 05:03:14;;;;;;;1.30;0.73;;;18.20;82.70;;;;;;5127119;27;20823;-76
2023/05/28 05:05:40;;;;;;;;;;;18.40;82.40;;;;;;5117824;27;20028;-78
2023/05/28 05:08:06;;;;;;;1.55;0.38;;;18.80;81.20;;;;;;5134939;27;19949;-77
2023/05/28 05:10:32;;;;;;;0.93;0.70;;;19.30;79.40;;;;;;5127948;27;20031;-77
2023/05/28 05:12:59;;;;;;;1.03;1.00;;;19.70;77.90;;;;;;5123064;27;20035;-76
2023/05/28 05:15:26;;;;;;;0.45;0.45;;;19.80;76.90;;;;;;5127074;27;20692;-78
2023/05/28 05:17:52;;;;;;;0.20;0.20;;;20.10;76.10;;;;;;5126747;27;20055;-77
2023/05/28 05:20:18;;;;;;;0.30;0.30;;;20.40;75.10;;;;;;5123136;27;20049;-77
2023/05/28 05:22:43;;;;;;;0.37;0.37;;;20.60;74.80;;;;;;5125874;27;20454;-78
2023/05/28 05:25:09;;;;;;;1.30;1.20;;;20.90;73.70;;;;;;5117493;27;20121;-79
2023/05/28 05:27:36;;;;;;;0.77;0.77;;;21.10;72.80;;;;;;5119553;27;20027;-77
2023/05/28 05:30:05;;;;;;;0.55;0.55;;;21.30;71.80;;;;;;5127226;27;20060;-78
2023/05/28 05:32:31;;;;;;;0.95;0.95;;;21.60;71.40;;;;;;5128211;27;20023;-78
2023/05/28 05:34:57;;;;;;;0.77;0.77;;;21.80;71.10;;;;;;5120638;27;20023;-79
2023/05/28 05:37:23;;;;;;;0.40;0.40;;;22.00;70.10;;;;;;5115005;27;20032;-77
2023/05/28 05:39:49;;;;;;;1.92;0.73;;;22.30;68.70;;;;;;5120957;27;20030;-78
2023/05/28 05:42:14;;;;;;;0.80;0.70;;;22.40;68.20;;;;;;5121431;27;20035;-78
2023/05/28 05:44:40;;;;;;;3.10;0.50;;;22.90;66.70;;;;;;5116491;27;20141;-78
2023/05/28 05:47:06;;;;;;;0.60;0.60;;;23.10;65.60;;;;;;5122451;27;20793;-77
2023/05/28 05:49:31;;;;;;;0.23;0.23;;;22.90;65.80;;;;;;5116161;27;20114;-78
2023/05/28 05:51:57;;;;;;;0.53;0.47;;;23.10;64.90;;;;;;5113983;27;20046;-79
2023/05/28 05:54:23;;;;;;;0.20;0.20;;;23.70;63.90;;;;;;5110550;27;20146;-78
2023/05/28 05:56:48;;;;;;;0.00;0.00;;;24.00;63.50;;;;;;5119824;27;20031;-79
2023/05/28 05:59:14;;;;;;;0.37;0.37;;;24.30;62.20;;;;;;5122666;27;20036;-78
2023/05/28 06:01:40;;;;;;;0.20;0.20;;;24.30;62.30;;;;;;5123731;27;20031;-79
2023/05/28 06:04:06;;;;;;;0.30;0.23;;;24.30;61.70;;;;;;5123345;27;20301;-78
2023/05/28 06:06:31;;;;;;;0.25;0.25;;;24.90;60.60;;;;;;5120720;27;20031;-78
2023/05/28 06:08:57;;;;;;;0.50;0.50;;;25.10;59.80;;;;;;5115858;27;20042;-79
2023/05/28 06:11:23;;;;;;;0.80;0.80;;;25.20;59.20;;;;;;5113388;27;20143;-78
2023/05/28 06:13:50;;;;;;;0.10;0.10;;;25.50;58.90;;;;;;5122047;27;20604;-80
2023/05/28 06:16:16;;;;;;;0.20;0.20;;;25.70;58.20;;;;;;5118415;27;20059;-78
2023/05/28 06:18:41;;;;;;;0.52;0.52;;;26.00;57.20;;;;;;5126219;27;20061;-80
2023/05/28 06:21:10;;;;;;;5.73;0.93;;;26.30;56.30;;;;;;5122237;27;20039;-78
2023/05/28 06:23:36;;;;;;;0.70;0.70;;;26.80;55.80;;;;;;5126579;28;20281;-78
2023/05/28 06:26:03;;;;;;;0.20;0.20;;;27.40;53.90;;;;;;5122698;27;20034;-79
2023/05/28 06:28:29;;;;;;;0.35;0.35;;;27.30;54.20;;;;;;5123771;27;20285;-78
2023/05/28 06:30:54;;;;;;;0.22;0.22;;;27.40;54.00;;;;;;5121751;27;20744;-79
2023/05/28 06:33:20;;;;;;;0.28;0.20;;;28.30;52.80;;;;;;5125614;28;20038;-80
2023/05/28 06:35:46;;;;;;;0.40;0.40;;;28.10;51.90;;;;;;5125576;27;20019;-78
2023/05/28 06:38:12;;;;;;;0.52;0.45;;;28.30;51.80;;;;;;5129585;27;20070;-77
2023/05/28 06:40:37;;;;;;;0.00;0.00;;;28.20;51.00;;;;;;5123562;28;20050;-78
2023/05/28 06:43:03;;;;;;;0.20;0.20;;;28.40;50.80;;;;;;5125918;28;20802;-78
2023/05/28 06:45:29;;;;;;;0.55;0.55;;;28.50;50.70;;;;;;5126497;27;20489;-81
2023/05/28 06:47:54;;;;;;;0.10;0.10;;;28.90;49.90;;;;;;5125861;27;20031;-80
2023/05/28 06:50:20;;;;;;;0.47;0.47;;;29.00;49.80;;;;;;5123198;28;20050;-79
2023/05/28 06:52:46;;;;;;;0.32;0.15;;;29.60;48.20;;;;;;5119336;28;20134;-79
2023/05/28 06:55:12;;;;;;;0.65;0.45;;;29.50;48.00;;;;;;5110584;27;20122;-79
2023/05/28 06:57:37;;;;;;;0.40;0.40;;;29.90;47.50;;;;;;5120779;28;20074;-80
2023/05/28 07:00:13;;;;;;;0.00;0.00;;;29.80;47.80;;;;;;5121817;27;20031;-80
2023/05/28 07:02:38;;;;;;;0.40;0.40;;;30.30;46.90;;;;;;5125716;27;20029;-79
2023/05/28 07:05:04;;;;;;;0.28;0.28;;;30.30;46.10;;;;;;5126463;27;20075;-81
2023/05/28 07:07:31;;;;;;;0.57;0.52;;;30.90;46.40;;;;;;5126776;27;20046;-81
2023/05/28 07:09:57;;;;;;;0.50;0.50;;;31.40;45.30;;;;;;5130594;27;20023;-83
2023/05/28 07:12:23;;;;;;;;;;;32.00;45.20;;;;;;5129304;27;20023;-79
2023/05/28 07:14:48;;;;;;;0.52;0.52;;;32.40;43.20;;;;;;5130766;27;19964;-82
2023/05/28 07:17:14;;;;;;;;;;;32.40;43.10;;;;;;5131598;27;20035;-82
2023/05/28 07:19:40;;;;;;;0.03;0.03;;;32.50;43.30;;;;;;5126789;27;19918;-81
2023/05/28 07:22:06;;;;;;;0.60;0.60;;;32.30;42.50;;;;;;5128640;27;20031;-81
2023/05/28 07:24:31;;;;;;;0.60;0.60;;;32.70;42.50;;;;;;5128854;27;20065;-81
2023/05/28 07:26:57;;;;;;;0.00;0.00;;;33.40;42.00;;;;;;5131327;27;20035;-81
2023/05/28 07:29:23;;;;;;;0.10;0.10;;;33.60;40.80;;;;;;5127215;27;20034;-80
2023/05/28 07:31:48;;;;;;;3.10;1.52;;;33.70;41.00;;;;;;5124641;27;20023;-78
2023/05/28 07:34:14;;;;;;;0.63;0.63;;;33.20;40.50;;;;;;5127177;27;20038;-78
2023/05/28 07:36:40;;;;;;;1.58;0.70;;;34.40;40.90;;;;;;5121183;27;20116;-77
2023/05/28 07:39:06;;;;;;;0.52;0.45;;;35.10;40.40;;;;;;5129856;27;20790;-77
2023/05/28 07:41:31;;;;;;;0.52;0.52;;;35.10;40.10;;;;;;5128590;27;20072;-78
2023/05/28 07:43:57;;;;;;;0.38;0.38;;;34.80;40.20;;;;;;5127532;27;20745;-78
2023/05/28 07:46:22;;;;;;;0.20;0.20;;;35.30;40.10;;;;;;5122072;27;20065;-78
2023/05/28 07:48:49;;;;;;;0.20;0.20;;;35.50;39.40;;;;;;5128209;27;20027;-78
2023/05/28 07:51:15;;;;;;;0.65;0.65;;;36.20;39.00;;;;;;5125299;27;20059;-78
2023/05/28 07:53:41;;;;;;;0.08;0.08;;;36.70;38.70;;;;;;5126983;27;20653;-78
2023/05/28 07:56:07;;;;;;;0.17;0.17;;;36.50;38.70;;;;;;5123138;27;20027;-81
2023/05/28 07:58:33;;;;;;;0.03;0.03;;;36.60;37.70;;;;;;5123673;27;20033;-78
2023/05/28 08:00:59;;;;;;;0.10;0.10;;;36.10;37.40;;;;;;5125506;27;20092;-81
2023/05/28 08:03:27;;;;;;;0.88;0.40;;;36.90;37.60;;;;;;5126271;27;20027;-79
2023/05/28 08:05:53;;;;;;;0.00;0.00;;;36.90;39.10;;;;;;5124635;27;20195;-79
2023/05/28 08:08:19;;;;;;;0.30;0.30;;;37.60;37.30;;;;;;5121098;27;20100;-79
2023/05/28 08:10:45;;;;;;;0.20;0.20;;;37.80;36.60;;;;;;5126361;27;20023;-79
2023/05/28 08:13:11;;;;;;;0.40;0.40;;;37.30;35.50;;;;;;5128672;27;20019;-79
2023/05/28 08:15:37;;;;;;;0.00;0.00;;;37.50;36.00;;;;;;5127153;27;20023;-79
2023/05/28 08:18:02;;;;;;;0.10;0.10;;;38.80;34.60;;;;;;5128550;27;20450;-80
2023/05/28 08:20:29;;;;;;;0.00;0.00;;;38.50;36.40;;;;;;5126673;27;20062;-80
2023/05/28 08:22:55;;;;;;;0.00;0.00;;;38.50;35.50;;;;;;5126461;27;20033;-80
2023/05/28 08:25:21;;;;;;;2.10;0.88;;;39.00;34.10;;;;;;5127662;27;20023;-80
2023/05/28 08:27:46;;;;;;;0.08;0.08;;;38.20;35.30;;;;;;5124937;27;20028;-80
2023/05/28 08:30:12;;;;;;;0.00;0.00;;;39.20;36.20;;;;;;5123039;27;20534;-80
2023/05/28 08:32:38;;;;;;;1.20;1.13;;;39.70;34.10;;;;;;5130340;27;20533;-80
2023/05/28 08:35:04;;;;;;;7.35;1.52;;;40.00;33.20;;;;;;5125782;27;20023;-79
2023/05/28 08:37:29;;;;;;;0.00;0.00;;;39.90;32.30;;;;;;5120440;27;20537;-80
2023/05/28 08:39:55;;;;;;;0.32;0.32;;;39.90;32.80;;;;;;5127764;27;20086;-80
2023/05/28 08:42:21;;;;;;;0.20;0.20;;;39.90;33.40;;;;;;5124572;27;20050;-80
2023/05/28 08:44:46;;;;;;;0.00;0.00;;;40.50;32.10;;;;;;5126297;27;20028;-80
2023/05/28 08:47:14;;;;;;;0.70;0.25;;;40.80;32.30;;;;;;5127675;27;20045;-79
2023/05/28 08:49:50;;;;;;;0.00;0.00;;;40.50;33.60;;;;;;5122665;27;20023;-79
2023/05/28 08:52:18;;;;;;;0.32;0.32;;;40.80;34.60;;;;;;5128531;27;20023;-79
2023/05/28 08:54:44;;;;;;;0.00;0.00;;;41.20;32.80;;;;;;5120868;27;20975;-80
2023/05/28 08:57:11;;;;;;;0.00;0.00;;;41.70;32.50;;;;;;5127723;27;20035;-80
2023/05/28 08:59:37;;;;;;;0.15;0.15;;;41.80;32.90;;;;;;5122211;27;20055;-80
2023/05/28 09:02:08;;;;;;;0.00;0.00;;;41.90;31.90;;;;;;5120988;27;20061;-80
2023/05/28 09:04:34;;;;;;;0.35;0.35;;;41.50;32.30;;;;;;5121333;27;20031;-80
2023/05/28 09:07:00;;;;;;;0.43;0.43;;;41.80;33.50;;;;;;5116387;27;20098;-80
2023/05/28 09:09:26;;;;;;;0.05;0.05;;;41.90;32.40;;;;;;5128186;27;20023;-80
2023/05/28 09:11:58;;;;;;;20.58;2.72;;;41.90;31.40;;;;;;5125907;27;20077;-80
2023/05/28 09:14:23;;;;;;;1.17;0.73;;;42.00;31.80;;;;;;5125215;27;20031;-80
2023/05/28 09:16:49;;;;;;;4.25;1.17;;;42.10;31.70;;;;;;5122516;27;20027;-80
2023/05/28 09:19:16;;;;;;;0.55;0.55;;;42.10;32.10;;;;;;5122364;27;20050;-80
2023/05/28 09:21:57;;;;;;;3.42;1.13;;;42.60;31.40;;;;;;5123715;27;20035;-80
2023/05/28 09:24:26;;;;;;;0.22;0.22;;;42.00;32.40;;;;;;5125004;27;20035;-80
2023/05/28 09:26:55;;;;;;;0.45;0.45;;;42.40;32.20;;;;;;5127738;27;20023;-80
2023/05/28 09:29:22;;;;;;;1.05;0.85;;;41.00;33.90;;;;;;5124008;27;20443;-80
2023/05/28 09:31:56;;;;;;;4.25;1.13;;;41.60;33.60;;;;;;5128247;27;20034;-80
2023/05/28 09:34:29;;;;;;;0.10;0.10;;;41.50;34.00;;;;;;5125287;27;20042;-80
2023/05/28 09:37:05;;;;;;;0.22;0.22;;;42.90;30.90;;;;;;5128150;27;20393;-80
2023/05/28 09:39:31;;;;;;;0.05;0.05;;;43.00;31.10;;;;;;5128055;27;20111;-80
2023/05/28 09:42:09;;;;;;;0.00;0.00;;;40.50;31.70;;;;;;5127942;27;20020;-80
2023/05/28 09:44:36;;;;;;;0.65;0.52;;;41.80;32.80;;;;;;5129184;27;20038;-80
2023/05/28 09:47:12;;;;;;;0.40;0.40;;;42.20;30.90;;;;;;5129000;27;20022;-80
2023/05/28 09:49:38;;;;;;;0.10;0.10;;;41.10;32.60;;;;;;5122987;27;20027;-80
2023/05/28 09:52:08;;;;;;;0.15;0.15;;;41.60;32.60;;;;;;5128141;27;20516;-80
2023/05/28 09:54:35;;;;;;;0.00;0.00;;;40.80;32.10;;;;;;5123951;27;20053;-81
2023/05/28 09:57:05;;;;;;;0.35;0.35;;;40.80;33.40;;;;;;5129665;27;20050;-80
2023/05/28 09:59:32;;;;;;;1.00;0.52;;;39.60;33.80;;;;;;5125346;27;20050;-79
2023/05/28 10:02:10;;;;;;;0.10;0.10;;;40.10;35.30;;;;;;5124581;27;20049;-80
2023/05/28 10:04:38;;;;;;;0.10;0.10;;;41.90;34.00;;;;;;5119613;27;20031;-80
2023/05/28 10:07:05;;;;;;;0.00;0.00;;;42.90;32.10;;;;;;5112874;27;20809;-80
2023/05/28 10:09:33;;;;;;;0.15;0.15;;;42.10;32.50;;;;;;5119719;27;20553;-80
2023/05/28 10:12:18;;;;;;;0.43;0.20;;;40.50;30.30;;;;;;5124341;27;20158;-80
2023/05/28 10:14:46;;;;;;;0.10;0.10;;;41.60;33.20;;;;;;5121285;27;20027;-80
2023/05/28 10:17:13;;;;;;;0.38;0.38;;;42.50;33.00;;;;;;5120425;27;20020;-80
2023/05/28 10:19:40;;;;;;;0.73;0.73;;;42.40;30.70;;;;;;5129004;27;20050;-80
2023/05/28 10:22:06;;;;;;;0.00;0.00;;;41.40;30.30;;;;;;5122735;27;20066;-80
2023/05/28 10:24:32;;;;;;;1.83;1.38;;;40.30;32.60;;;;;;5123264;27;20030;-80
2023/05/28 10:26:58;;;;;;;0.00;0.00;;;41.10;31.80;;;;;;5122627;28;20493;-81
2023/05/28 10:29:24;;;;;;;;;;;41.20;31.90;;;;;;5121057;27;20114;-81
2023/05/28 10:32:02;;;;;;;0.52;0.52;;;42.10;31.60;;;;;;5121773;27;19984;-81
2023/05/28 10:34:32;;;;;;;0.40;0.40;;;39.80;34.20;;;;;;5118589;28;20052;-80
2023/05/28 10:37:02;;;;;;;0.85;0.68;;;40.50;33.00;;;;;;5120851;27;20080;-81
2023/05/28 10:39:40;;;;;;;0.00;0.00;;;40.10;33.40;;;;;;5126680;27;20031;-85
2023/05/28 10:42:07;;;;;;;0.28;0.20;;;37.80;32.20;;;;;;5118400;27;20031;-83
2023/05/28 10:45:09;;;;;;;2.17;0.32;;;36.40;36.40;;;;;;5129675;27;20505;-83
2023/05/28 10:47:38;;;;;;;0.60;0.25;;;34.90;38.90;;;;;;5128901;27;20071;-82
2023/05/28 10:50:13;;;;;;;1.17;0.47;;;34.70;41.00;;;;;;5125904;27;20019;-80
2023/05/28 10:52:39;;;;;;;0.32;0.22;;;34.40;42.20;;;;;;5125020;27;20529;-79
2023/05/28 10:55:06;;;;;;;;;;;34.20;41.30;;;;;;5128640;27;20047;-82
2023/05/28 10:57:47;;;;;;;0.25;0.25;;;33.60;41.10;;;;;;5130769;27;19925;-81
2023/05/28 11:00:23;;;;;;;0.40;0.40;;;32.70;43.70;;;;;;5129880;27;20033;-83
2023/05/28 11:02:51;;;;;;;;;;;32.50;41.70;;;;;;5127158;27;20042;-81
2023/05/28 11:05:16;;;;;;;0.00;0.00;;;32.70;42.00;;;;;;5129563;27;19918;-82
2023/05/28 11:07:42;;;;;;;0.52;0.52;;;33.10;44.90;;;;;;5125751;27;20035;-82
2023/05/28 11:10:10;;;;;;;0.00;0.00;;;32.20;43.50;;;;;;5125653;27;20832;-83
2023/05/28 11:12:38;;;;;;;0.95;0.95;;;32.50;44.10;;;;;;5126312;27;20043;-82
2023/05/28 11:15:05;;;;;;;0.43;0.40;;;32.80;42.10;;;;;;5118252;27;20024;-81
2023/05/28 11:17:45;;;;;;;0.00;0.00;;;32.70;41.70;;;;;;5126062;27;20572;-81
2023/05/28 11:20:18;;;;;;;0.43;0.43;;;32.50;44.10;;;;;;5125661;27;20030;-80
2023/05/28 11:23:00;;;;;;;0.10;0.10;;;32.40;44.30;;;;;;5122561;27;20038;-80
2023/05/28 11:25:25;;;;;;;0.10;0.10;;;32.00;46.60;;;;;;5125091;27;20031;-80
2023/05/28 11:27:52;;;;;;;0.38;0.25;;;31.30;45.90;;;;;;5129369;27;20040;-80
2023/05/28 11:30:19;;;;;;;0.45;0.45;;;31.50;48.90;;;;;;5128934;27;20092;-80
2023/05/28 11:32:46;;;;;;;8.48;0.80;;;31.10;49.10;;;;;;5127503;27;20472;-80
2023/05/28 11:35:13;;;;;;;0.10;0.10;;;30.90;47.90;;;;;;5126130;27;20031;-82
2023/05/28 11:37:41;;;;;;;0.15;0.15;;;30.70;48.20;;;;;;5130664;27;20029;-82
2023/05/28 11:40:11;;;;;;;0.45;0.45;;;30.70;51.00;;;;;;5128314;27;20035;-82
2023/05/28 11:42:46;;;;;;;0.15;0.15;;;30.70;46.10;;;;;;5130274;27;20033;-81
2023/05/28 11:45:12;;;;;;;0.17;0.17;;;30.80;46.20;;;;;;5129816;27;20031;-82
2023/05/28 11:47:38;;;;;;;0.10;0.10;;;30.40;48.60;;;;;;5128998;27;20028;-81
2023/05/28 11:50:07;;;;;;;;;;;30.70;48.80;;;;;;5129253;27;20689;-82
2023/05/28 11:52:33;;;;;;;0.40;0.40;;;31.10;47.20;;;;;;5129244;27;19915;-81
2023/05/28 11:55:01;;;;;;;0.10;0.10;;;31.00;45.10;;;;;;5129358;27;20100;-81
2023/05/28 11:57:28;;;;;;;0.45;0.45;;;31.10;45.50;;;;;;5129018;27;20034;-81
2023/05/28 12:00:11;;;;;;;0.57;0.57;;;30.80;45.20;;;;;;5121853;27;20031;-82
2023/05/28 12:02:45;;;;;;;0.00;0.00;;;30.40;49.00;;;;;;5125859;27;20038;-81
2023/05/28 12:05:11;;;;;;;0.00;0.00;;;30.70;45.60;;;;;;5124687;27;20023;-81
2023/05/28 12:07:37;;;;;;;0.40;0.30;;;30.80;45.30;;;;;;5127918;27;20508;-81
2023/05/28 12:10:11;;;;;;;0.63;0.60;;;30.90;48.30;;;;;;5124317;27;20027;-81
2023/05/28 12:12:42;;;;;;;0.10;0.10;;;30.90;46.40;;;;;;5124566;27;20044;-81
2023/05/28 12:15:09;;;;;;;0.20;0.20;;;30.40;47.10;;;;;;5122328;27;20023;-81
2023/05/28 12:17:40;;;;;;;0.15;0.15;;;30.20;46.30;;;;;;5125411;27;20071;-81
2023/05/28 12:20:15;;;;;;;0.32;0.32;;;30.30;50.50;;;;;;5120734;27;20031;-81
2023/05/28 12:22:41;;;;;;;0.20;0.20;;;30.70;48.40;;;;;;5119416;27;20025;-82
2023/05/28 12:25:08;;;;;;;0.10;0.10;;;30.80;50.10;;;;;;5113121;27;20102;-82
2023/05/28 12:27:34;;;;;;;0.05;0.05;;;30.80;47.10;;;;;;5125936;27;20091;-80
2023/05/28 12:30:00;;;;;;;0.55;0.55;;;30.90;47.90;;;;;;5127900;27;20031;-80
2023/05/28 12:32:25;;;;;;;0.00;0.00;;;30.80;47.90;;;;;;5127631;27;20554;-78
2023/05/28 12:34:53;;;;;;;4.28;0.75;;;30.40;49.80;;;;;;5125128;27;20569;-79
2023/05/28 12:37:19;;;;;;;0.17;0.17;;;30.40;44.70;;;;;;5121022;27;20020;-80
2023/05/28 12:39:45;;;;;;;0.00;0.00;;;30.80;48.50;;;;;;5125708;27;20058;-79
2023/05/28 12:42:11;;;;;;;0.50;0.38;;;30.80;46.00;;;;;;5125683;27;20057;-79
2023/05/28 12:44:38;;;;;;;0.47;0.47;;;31.10;44.40;;;;;;5122452;27;20019;-78
2023/05/28 12:47:03;;;;;;;;;;;30.30;40.10;;;;;;5120916;27;20027;-78
2023/05/28 12:49:29;;;;;;;0.03;0.03;;;30.50;40.50;;;;;;5126400;27;19938;-78